KFHU/FHU METAR and TAF weather

Enter ICAO airport designator
Station Type Date Time Source
KFHU METAR 2019/04/22 23:58 UTC NOAA

KFHU 222358Z AUTO 26014G20KT 10SM CLR 23/M06 A2993 RMK AO2 LTG DSNT NE SLP076 T02271064 10244 20201 55011


Station Type Date Time Source
KFHU Decoded METAR 2019/04/22 23:58 UTC NOAA

Fort Huachuca, Libby AAF Ft Huachuca, AZ, United States (KFHU) 46-98N 110-20W
Apr 22, 2019 - 07:58 PM EDT / 2019.04.22 2358 UTC
Wind: from the W (260 degrees) at 16 MPH (14 KT) gusting to 23 MPH (20 KT):0
Visibility: 10 mile(s):0
Sky conditions: clear
Weather: Lightning observed
Temperature: 72.9 F (22.7 C)
Dew Point: 20.5 F (-6.4 C)
Relative Humidity: 13%
Pressure (altimeter): 29.93 in. Hg (1013 hPa)
Pressure tendency: 0.03 inches (1.1 hPa) lower than three hours ago
ob: KFHU 222358Z AUTO 26014G20KT 10SM CLR 23/M06 A2993 RMK AO2 LTG DSNT NE SLP076 T02271064 10244 20201 55011
cycle: 0

Station Type Date Time Source
KFHU TAF 2019/04/22 19:31 UTC NOAA

TAF
AMD KFHU 221921Z 2219/2324 23010G20KT 9999 SKC QNH3000INS
TEMPO 2221/2302 25015G25KT 510009
BECMG 2305/2306 25009KT 9999 SKC QNH2998INS TX24/2222Z TN05/2313Z

Example: see airport list